In Rescue
 
Open Full Screen Window  High Contrast Mode
Wind Gusting 43 knots
21
September 21, 2019 8:21 AM CDT
Present Weather: Rain
Weather Information
Wind Direction
  200 °
Wind Speed
  21 kt (24 mph)
Wind Gust
  43 kt (49 mph)
Variable Wind
160°
220°
Altimeter
29.66 in
Visibility
1 1/4 SM
Temperature
21° C
70° F
Dewpoint
19° C
66° F
Humidity
88%
1hr Rain Fall
00.12 in.
24hr Rain Fall
00.12 in.
Sky Condition
Overcast @ 2,000 ft
Broken @ 1,400 ft
IFR

METAR KBJI 211321Z AUTO 20021G43KT 160V220 1 1/4SM RA BKN014 OVC020 21/19 A2966 RMK AO2 VIS 1/2V5 LTG DSNT N AND S P0012 T02050193

FAA Disclaimer: The data displayed is for advisory purposes only and is not to be used for flight planning or operations.